In Rescue
 
Open Full Screen Window  High Contrast Mode
Wind Gusting 14 knots
08
February 25, 2021 5:23 PM EST
Weather Information
Wind Direction
  290 °
Wind Speed
  08 kt (9 mph)
Wind Gust
  14 kt (16 mph)
Altimeter
30.20 in
Visibility
10 SM
Temperature
-02° C
28° F
Dewpoint
-06° C
21° F
Humidity
74%
Sky Condition
Broken @ 4,300 ft
Scattered @ 2,300 ft
VFR

METAR KPZQ 252223Z AUTO 29008G14KT 10SM SCT023 BKN043 M02/M06 A3020 RMK AO2 T10221057

FAA Disclaimer: The data displayed is for advisory purposes only and is not to be used for flight planning or operations.